Time,TemperatureF,DewpointF,PressureIn,WindDirection,WindDirectionDegrees,WindSpeedMPH,WindSpeedGustMPH,Humidity,HourlyPrecipIn,Conditions,Clouds,dailyrainin,SoftwareType,DateUTC
2013-02-17 00:00:00,50.1,46.0,30.24,SE,131,1.5,0.0,85,0.00,,,0.00,WeatherCatV1.15B25,2013-02-17 08:00:00,
2013-02-17 00:01:00,42.6,39.3,30.36,ENE,67,0.0,0.0,88,0.00,,,0.00,LWC V2.11 B50,2013-02-17 08:01:00,
2013-02-17 00:05:00,50.1,46.0,30.24,SE,131,1.5,0.0,85,0.00,,,0.00,WeatherCatV1.15B25,2013-02-17 08:05:00,
2013-02-17 00:06:00,42.6,39.3,30.36,NE,45,0.0,0.0,88,0.00,,,0.00,LWC V2.11 B50,2013-02-17 08:06:00,
2013-02-17 00:10:00,50.1,46.0,30.24,SE,131,1.5,0.0,85,0.00,,,0.00,WeatherCatV1.15B25,2013-02-17 08:10:00,
2013-02-17 00:11:00,42.6,39.3,30.36,NE,45,0.0,0.0,88,0.00,,,0.00,LWC V2.11 B50,2013-02-17 08:11:00,
2013-02-17 00:15:00,50.1,46.0,30.24,SE,131,1.5,0.0,85,0.00,,,0.00,WeatherCatV1.15B25,2013-02-17 08:15:00,
2013-02-17 00:16:00,42.6,39.3,30.36,ENE,67,0.0,0.0,88,0.00,,,0.00,LWC V2.11 B50,2013-02-17 08:16:00,
2013-02-17 00:20:00,50.1,46.0,30.24,SE,131,1.5,0.0,85,0.00,,,0.00,WeatherCatV1.15B25,2013-02-17 08:20:00,
2013-02-17 00:21:00,42.4,39.1,30.36,ENE,67,0.0,0.0,88,0.00,,,0.00,LWC V2.11 B50,2013-02-17 08:21:00,
2013-02-17 00:25:00,50.1,46.0,30.24,SE,131,1.5,0.0,85,0.00,,,0.00,WeatherCatV1.15B25,2013-02-17 08:25:00,
2013-02-17 00:26:00,42.4,39.1,30.36,NNE,22,0.0,0.0,88,0.00,,,0.00,LWC V2.11 B50,2013-02-17 08:26:00,
2013-02-17 00:30:00,50.1,46.0,30.24,SE,131,1.5,0.0,85,0.00,,,0.00,WeatherCatV1.15B25,2013-02-17 08:30:00,
2013-02-17 00:31:00,42.4,39.4,30.36,NNE,22,0.0,0.0,89,0.00,,,0.00,LWC V2.11 B50,2013-02-17 08:31:00,
2013-02-17 00:35:00,50.1,46.0,30.24,SE,131,1.5,0.0,85,0.00,,,0.00,WeatherCatV1.15B25,2013-02-17 08:35:00,
2013-02-17 00:36:00,42.4,39.4,30.37,NE,45,0.0,0.0,89,0.00,,,0.00,LWC V2.11 B50,2013-02-17 08:36:00,
2013-02-17 00:40:00,50.1,46.0,30.24,SE,131,1.5,0.0,85,0.00,,,0.00,WeatherCatV1.15B25,2013-02-17 08:40:00,
2013-02-17 00:42:00,42.3,39.3,30.36,NE,45,0.0,0.0,89,0.00,,,0.00,LWC V2.11 B50,2013-02-17 08:42:00,
2013-02-17 00:45:00,50.1,46.0,30.24,SE,131,1.5,0.0,85,0.00,,,0.00,WeatherCatV1.15B25,2013-02-17 08:45:00,
2013-02-17 00:47:00,42.1,39.1,30.37,ENE,67,0.0,0.0,89,0.00,,,0.00,LWC V2.11 B50,2013-02-17 08:47:00,
2013-02-17 00:50:00,50.1,46.0,30.24,SE,131,1.5,0.0,85,0.00,,,0.00,WeatherCatV1.15B25,2013-02-17 08:50:00,
2013-02-17 00:52:00,42.1,39.1,30.37,ENE,67,0.0,0.0,89,0.00,,,0.00,LWC V2.11 B50,2013-02-17 08:52:00,
2013-02-17 00:55:00,50.1,46.0,30.24,SE,131,1.5,0.0,85,0.00,,,0.00,WeatherCatV1.15B25,2013-02-17 08:55:00,
2013-02-17 00:57:00,42.1,39.1,30.37,ENE,67,0.0,0.0,89,0.00,,,0.00,LWC V2.11 B50,2013-02-17 08:57:00,
2013-02-17 01:00:00,50.1,46.0,30.24,SE,131,1.5,0.0,85,0.00,,,0.00,WeatherCatV1.15B25,2013-02-17 09:00:00,
2013-02-17 01:02:00,42.1,39.1,30.36,ENE,67,0.0,0.0,89,0.00,,,0.00,LWC V2.11 B50,2013-02-17 09:02:00,
2013-02-17 01:05:00,50.1,46.0,30.24,SE,131,1.5,0.0,85,0.00,,,0.00,WeatherCatV1.15B25,2013-02-17 09:05:00,
2013-02-17 01:07:00,41.9,38.9,30.37,NE,45,0.0,0.0,89,0.00,,,0.00,LWC V2.11 B50,2013-02-17 09:07:00,
2013-02-17 01:10:00,50.1,46.0,30.24,SE,131,1.5,0.0,85,0.00,,,0.00,WeatherCatV1.15B25,2013-02-17 09:10:00,
2013-02-17 01:12:00,41.9,38.9,30.37,NE,45,0.0,0.0,89,0.00,,,0.00,LWC V2.11 B50,2013-02-17 09:12:00,
2013-02-17 01:15:00,50.1,46.0,30.24,SE,131,1.5,0.0,85,0.00,,,0.00,WeatherCatV1.15B25,2013-02-17 09:15:00,
2013-02-17 01:17:00,41.9,38.9,30.37,NE,45,0.0,0.0,89,0.00,,,0.00,LWC V2.11 B50,2013-02-17 09:17:00,
2013-02-17 01:20:00,50.1,46.0,30.24,SE,131,1.5,0.0,85,0.00,,,0.00,WeatherCatV1.15B25,2013-02-17 09:20:00,
2013-02-17 01:22:00,41.9,38.9,30.37,NE,45,0.0,0.0,89,0.00,,,0.00,LWC V2.11 B50,2013-02-17 09:22:00,
2013-02-17 01:25:00,50.1,46.0,30.24,SE,131,1.5,0.0,85,0.00,,,0.00,WeatherCatV1.15B25,2013-02-17 09:25:00,
2013-02-17 01:27:00,41.7,38.7,30.37,NNE,22,0.0,0.0,89,0.00,,,0.00,LWC V2.11 B50,2013-02-17 09:27:00,
2013-02-17 01:30:00,50.1,46.0,30.24,SE,131,1.5,0.0,85,0.00,,,0.00,WeatherCatV1.15B25,2013-02-17 09:30:00,
2013-02-17 01:32:00,41.7,38.7,30.37,NE,45,0.0,0.0,89,0.00,,,0.00,LWC V2.11 B50,2013-02-17 09:32:00,
2013-02-17 01:35:00,50.1,46.0,30.24,SE,131,1.5,0.0,85,0.00,,,0.00,WeatherCatV1.15B25,2013-02-17 09:35:00,
2013-02-17 01:37:00,41.7,38.7,30.38,ESE,112,0.0,0.0,89,0.00,,,0.00,LWC V2.11 B50,2013-02-17 09:37:00,
2013-02-17 01:40:00,50.1,46.0,30.24,SE,131,1.5,0.0,85,0.00,,,0.00,WeatherCatV1.15B25,2013-02-17 09:40:00,
2013-02-17 01:42:00,41.7,38.7,30.38,ENE,67,0.0,0.0,89,0.00,,,0.00,LWC V2.11 B50,2013-02-17 09:42:00,
2013-02-17 01:45:00,50.1,46.0,30.24,SE,131,1.5,0.0,85,0.00,,,0.00,WeatherCatV1.15B25,2013-02-17 09:45:00,
2013-02-17 01:47:00,41.7,38.7,30.38,ESE,112,0.0,0.0,89,0.00,,,0.00,LWC V2.11 B50,2013-02-17 09:47:00,
2013-02-17 01:50:00,50.1,46.0,30.24,SE,131,1.5,0.0,85,0.00,,,0.00,WeatherCatV1.15B25,2013-02-17 09:50:00,
2013-02-17 01:52:00,41.5,38.5,30.38,SE,135,0.0,0.0,89,0.00,,,0.00,LWC V2.11 B50,2013-02-17 09:52:00,
2013-02-17 01:55:00,50.1,46.0,30.24,SE,131,1.5,0.0,85,0.00,,,0.00,WeatherCatV1.15B25,2013-02-17 09:55:00,
2013-02-17 01:58:00,41.5,38.5,30.38,East,90,0.0,0.0,89,0.00,,,0.00,LWC V2.11 B50,2013-02-17 09:58:00,
2013-02-17 02:00:00,50.1,46.0,30.24,SE,131,1.5,0.0,85,0.00,,,0.00,WeatherCatV1.15B25,2013-02-17 10:00:00,
2013-02-17 02:03:00,41.5,38.5,30.39,East,90,0.0,0.0,89,0.00,,,0.00,LWC V2.11 B50,2013-02-17 10:03:00,
2013-02-17 02:05:00,50.1,46.0,30.24,SE,131,1.5,0.0,85,0.00,,,0.00,WeatherCatV1.15B25,2013-02-17 10:05:00,
2013-02-17 02:08:00,41.5,38.5,30.39,NW,315,0.0,0.0,89,0.00,,,0.00,LWC V2.11 B50,2013-02-17 10:08:00,
2013-02-17 02:10:00,50.1,46.0,30.24,SE,131,1.5,0.0,85,0.00,,,0.00,WeatherCatV1.15B25,2013-02-17 10:10:00,
2013-02-17 02:13:00,41.5,38.5,30.39,ESE,112,0.0,0.0,89,0.00,,,0.00,LWC V2.11 B50,2013-02-17 10:13:00,
2013-02-17 02:15:00,50.1,46.0,30.24,SE,131,1.5,0.0,85,0.00,,,0.00,WeatherCatV1.15B25,2013-02-17 10:15:00,
2013-02-17 02:18:00,41.5,38.5,30.39,ESE,112,0.0,0.0,89,0.00,,,0.00,LWC V2.11 B50,2013-02-17 10:18:00,
2013-02-17 02:20:00,50.1,46.0,30.24,SE,131,1.5,0.0,85,0.00,,,0.00,WeatherCatV1.15B25,2013-02-17 10:20:00,
2013-02-17 02:23:00,41.5,38.5,30.39,ESE,112,0.0,0.0,89,0.00,,,0.00,LWC V2.11 B50,2013-02-17 10:23:00,
2013-02-17 02:25:00,50.1,46.0,30.24,SE,131,1.5,0.0,85,0.00,,,0.00,WeatherCatV1.15B25,2013-02-17 10:25:00,
2013-02-17 02:28:00,41.5,38.5,30.39,ESE,112,0.0,0.0,89,0.00,,,0.00,LWC V2.11 B50,2013-02-17 10:28:00,
2013-02-17 02:30:00,50.1,46.0,30.24,SE,131,1.4,0.0,85,0.00,,,0.00,WeatherCatV1.15B25,2013-02-17 10:30:00,
2013-02-17 02:33:00,41.5,38.5,30.39,East,90,0.0,0.0,89,0.00,,,0.00,LWC V2.11 B50,2013-02-17 10:33:00,
2013-02-17 02:35:00,50.1,46.0,30.24,SE,131,1.4,0.0,85,0.00,,,0.00,WeatherCatV1.15B25,2013-02-17 10:35:00,
2013-02-17 02:40:00,50.1,46.0,30.24,SE,131,1.4,0.0,85,0.00,,,0.00,WeatherCatV1.15B25,2013-02-17 10:40:00,
2013-02-17 02:45:00,50.1,46.0,30.24,SE,131,1.4,0.0,85,0.00,,,0.00,WeatherCatV1.15B25,2013-02-17 10:45:00,
2013-02-17 02:50:00,50.1,46.0,30.24,SE,131,1.4,0.0,85,0.00,,,0.00,WeatherCatV1.15B25,2013-02-17 10:50:00,
2013-02-17 02:55:00,50.1,46.0,30.24,SE,131,1.4,0.0,85,0.00,,,0.00,WeatherCatV1.15B25,2013-02-17 10:55:00,
2013-02-17 03:00:00,41.5,38.5,30.39,West,270,0.0,0.0,89,0.00,,,0.00,LWC V2.11 B50,2013-02-17 11:00:00,
2013-02-17 03:05:00,41.4,38.4,30.38,SSE,157,0.0,0.0,89,0.00,,,0.00,LWC V2.11 B50,2013-02-17 11:05:00,
2013-02-17 03:10:00,41.4,38.4,30.38,SSE,157,0.0,0.0,89,0.00,,,0.00,LWC V2.11 B50,2013-02-17 11:10:00,
2013-02-17 03:15:00,41.4,38.4,30.38,SSE,157,0.0,0.0,89,0.00,,,0.00,LWC V2.11 B50,2013-02-17 11:15:00,
2013-02-17 03:20:00,41.2,38.2,30.38,SSE,157,0.0,0.0,89,0.00,,,0.00,LWC V2.11 B50,2013-02-17 11:20:00,
2013-02-17 03:25:00,41.2,38.2,30.39,SE,135,0.0,0.0,89,0.00,,,0.00,LWC V2.11 B50,2013-02-17 11:25:00,
2013-02-17 03:30:00,41.2,38.2,30.39,SE,135,0.0,0.0,89,0.00,,,0.00,LWC V2.11 B50,2013-02-17 11:30:00,
2013-02-17 03:35:00,50.1,46.0,30.24,SE,131,1.4,0.0,85,0.00,,,0.00,WeatherCatV1.15B25,2013-02-17 11:35:00,
2013-02-17 03:36:00,41.2,38.2,30.39,SE,135,0.0,0.0,89,0.00,,,0.00,LWC V2.11 B50,2013-02-17 11:36:00,
2013-02-17 03:40:00,50.1,46.0,30.24,SE,131,1.4,0.0,85,0.00,,,0.00,WeatherCatV1.15B25,2013-02-17 11:40:00,
2013-02-17 03:41:00,41.0,38.0,30.39,SE,135,0.0,0.0,89,0.00,,,0.00,LWC V2.11 B50,2013-02-17 11:41:00,
2013-02-17 03:45:00,50.1,46.0,30.24,SE,131,1.4,0.0,85,0.00,,,0.00,WeatherCatV1.15B25,2013-02-17 11:45:00,
2013-02-17 03:46:00,40.8,37.8,30.39,SE,135,0.0,0.0,89,0.00,,,0.00,LWC V2.11 B50,2013-02-17 11:46:00,
2013-02-17 03:50:00,50.1,46.0,30.24,SE,131,1.4,0.0,85,0.00,,,0.00,WeatherCatV1.15B25,2013-02-17 11:50:00,
2013-02-17 03:51:00,40.8,37.8,30.39,SE,135,0.0,0.0,89,0.00,,,0.00,LWC V2.11 B50,2013-02-17 11:51:00,
2013-02-17 03:55:00,50.1,46.0,30.24,SE,131,1.4,0.0,85,0.00,,,0.00,WeatherCatV1.15B25,2013-02-17 11:55:00,
2013-02-17 03:56:00,40.8,37.8,30.39,SE,135,0.0,0.0,89,0.00,,,0.00,LWC V2.11 B50,2013-02-17 11:56:00,
2013-02-17 04:00:00,50.1,46.0,30.24,SE,131,1.4,0.0,85,0.00,,,0.00,WeatherCatV1.15B25,2013-02-17 12:00:00,
2013-02-17 04:01:00,40.8,37.8,30.39,SE,135,0.0,0.0,89,0.00,,,0.00,LWC V2.11 B50,2013-02-17 12:01:00,
2013-02-17 04:05:00,50.1,46.0,30.24,SE,131,1.4,0.0,85,0.00,,,0.00,WeatherCatV1.15B25,2013-02-17 12:05:00,
2013-02-17 04:06:00,40.8,37.8,30.39,SE,135,0.0,0.0,89,0.00,,,0.00,LWC V2.11 B50,2013-02-17 12:06:00,
2013-02-17 04:10:00,50.1,46.0,30.24,SE,131,1.4,0.0,85,0.00,,,0.00,WeatherCatV1.15B25,2013-02-17 12:10:00,
2013-02-17 04:11:00,40.8,37.8,30.39,SE,135,0.0,0.0,89,0.00,,,0.00,LWC V2.11 B50,2013-02-17 12:11:00,
2013-02-17 04:15:00,50.1,46.0,30.24,SE,131,1.4,0.0,85,0.00,,,0.00,WeatherCatV1.15B25,2013-02-17 12:15:00,
2013-02-17 04:16:00,40.8,37.8,30.39,ENE,67,0.0,0.0,89,0.00,,,0.00,LWC V2.11 B50,2013-02-17 12:16:00,
2013-02-17 04:20:00,50.1,46.0,30.24,SE,131,1.4,0.0,85,0.00,,,0.00,WeatherCatV1.15B25,2013-02-17 12:20:00,
2013-02-17 04:21:00,40.6,37.6,30.39,ESE,112,0.0,0.0,89,0.00,,,0.00,LWC V2.11 B50,2013-02-17 12:21:00,
2013-02-17 04:25:00,50.1,46.0,30.24,SE,131,1.4,0.0,85,0.00,,,0.00,WeatherCatV1.15B25,2013-02-17 12:25:00,
2013-02-17 04:26:00,40.6,37.6,30.39,ESE,112,0.0,0.0,89,0.00,,,0.00,LWC V2.11 B50,2013-02-17 12:26:00,
2013-02-17 04:30:00,50.1,46.0,30.24,SE,131,1.4,0.0,85,0.00,,,0.00,WeatherCatV1.15B25,2013-02-17 12:30:00,
2013-02-17 04:31:00,40.5,37.5,30.38,ESE,112,0.0,0.0,89,0.00,,,0.00,LWC V2.11 B50,2013-02-17 12:31:00,
2013-02-17 04:35:00,50.1,46.0,30.24,SE,131,1.4,0.0,85,0.00,,,0.00,WeatherCatV1.15B25,2013-02-17 12:35:00,
2013-02-17 04:36:00,40.3,37.3,30.38,ESE,112,0.0,0.0,89,0.00,,,0.00,LWC V2.11 B50,2013-02-17 12:36:00,
2013-02-17 04:40:00,50.1,46.0,30.24,SE,131,1.4,0.0,85,0.00,,,0.00,WeatherCatV1.15B25,2013-02-17 12:40:00,
2013-02-17 04:41:00,40.3,37.3,30.38,ENE,67,0.0,0.0,89,0.00,,,0.00,LWC V2.11 B50,2013-02-17 12:41:00,
2013-02-17 04:45:00,50.1,46.0,30.24,SE,131,1.4,0.0,85,0.00,,,0.00,WeatherCatV1.15B25,2013-02-17 12:45:00,
2013-02-17 04:46:00,40.3,37.3,30.38,East,90,0.0,0.0,89,0.00,,,0.00,LWC V2.11 B50,2013-02-17 12:46:00,
2013-02-17 04:50:00,50.1,46.0,30.24,SE,131,1.4,0.0,85,0.00,,,0.00,WeatherCatV1.15B25,2013-02-17 12:50:00,
2013-02-17 04:52:00,40.1,37.1,30.39,ENE,67,0.0,0.0,89,0.00,,,0.00,LWC V2.11 B50,2013-02-17 12:52:00,
2013-02-17 04:55:00,50.1,46.0,30.24,SE,131,1.4,0.0,85,0.00,,,0.00,WeatherCatV1.15B25,2013-02-17 12:55:00,
2013-02-17 04:57:00,40.1,37.1,30.39,SE,135,0.0,0.0,89,0.00,,,0.00,LWC V2.11 B50,2013-02-17 12:57:00,
2013-02-17 05:00:00,50.1,46.0,30.24,SE,131,1.4,0.0,85,0.00,,,0.00,WeatherCatV1.15B25,2013-02-17 13:00:00,
2013-02-17 05:02:00,39.9,36.9,30.39,ESE,112,0.0,0.0,89,0.00,,,0.00,LWC V2.11 B50,2013-02-17 13:02:00,
2013-02-17 05:05:00,50.1,46.0,30.24,SE,131,1.4,0.0,85,0.00,,,0.00,WeatherCatV1.15B25,2013-02-17 13:05:00,
2013-02-17 05:07:00,39.9,36.9,30.39,ESE,112,0.0,0.0,89,0.00,,,0.00,LWC V2.11 B50,2013-02-17 13:07:00,
2013-02-17 05:10:00,50.1,46.0,30.24,SE,131,1.4,0.0,85,0.00,,,0.00,WeatherCatV1.15B25,2013-02-17 13:10:00,
2013-02-17 05:12:00,39.7,36.7,30.39,ENE,67,0.0,0.0,89,0.00,,,0.00,LWC V2.11 B50,2013-02-17 13:12:00,
2013-02-17 05:15:00,50.1,46.0,30.24,SE,131,1.4,0.0,85,0.00,,,0.00,WeatherCatV1.15B25,2013-02-17 13:15:00,
2013-02-17 05:17:00,39.7,36.7,30.39,SE,135,0.0,0.0,89,0.00,,,0.00,LWC V2.11 B50,2013-02-17 13:17:00,
2013-02-17 05:20:00,50.1,46.0,30.24,SE,131,1.4,0.0,85,0.00,,,0.00,WeatherCatV1.15B25,2013-02-17 13:20:00,
2013-02-17 05:22:00,39.6,36.9,30.39,ESE,112,0.0,0.0,90,0.00,,,0.00,LWC V2.11 B50,2013-02-17 13:22:00,
2013-02-17 05:25:00,50.1,46.0,30.24,SE,131,1.4,0.0,85,0.00,,,0.00,WeatherCatV1.15B25,2013-02-17 13:25:00,
2013-02-17 05:27:00,39.4,36.7,30.39,ESE,112,0.0,0.0,90,0.00,,,0.00,LWC V2.11 B50,2013-02-17 13:27:00,
2013-02-17 05:30:00,50.1,46.0,30.24,SE,131,1.4,0.0,85,0.00,,,0.00,WeatherCatV1.15B25,2013-02-17 13:30:00,
2013-02-17 05:32:00,39.4,36.7,30.39,ESE,112,0.0,0.0,90,0.00,,,0.00,LWC V2.11 B50,2013-02-17 13:32:00,
2013-02-17 05:35:00,50.1,46.0,30.24,SE,131,1.4,0.0,85,0.00,,,0.00,WeatherCatV1.15B25,2013-02-17 13:35:00,
2013-02-17 05:37:00,39.4,36.7,30.39,SE,135,0.0,0.0,90,0.00,,,0.00,LWC V2.11 B50,2013-02-17 13:37:00,
2013-02-17 05:40:00,50.1,46.0,30.24,SE,131,1.4,0.0,85,0.00,,,0.00,WeatherCatV1.15B25,2013-02-17 13:40:00,
2013-02-17 05:42:00,39.4,36.7,30.39,ESE,112,0.0,0.0,90,0.00,,,0.00,LWC V2.11 B50,2013-02-17 13:42:00,
2013-02-17 05:45:00,50.1,46.0,30.24,SE,131,1.4,0.0,85,0.00,,,0.00,WeatherCatV1.15B25,2013-02-17 13:45:00,
2013-02-17 05:47:00,39.0,36.3,30.39,East,90,0.0,0.0,90,0.00,,,0.00,LWC V2.11 B50,2013-02-17 13:47:00,
2013-02-17 05:50:00,50.1,46.0,30.24,SE,131,1.4,0.0,85,0.00,,,0.00,WeatherCatV1.15B25,2013-02-17 13:50:00,
2013-02-17 05:52:00,39.0,36.3,30.38,East,90,0.0,0.0,90,0.00,,,0.00,LWC V2.11 B50,2013-02-17 13:52:00,
2013-02-17 05:55:00,50.1,46.0,30.24,SE,131,1.4,0.0,85,0.00,,,0.00,WeatherCatV1.15B25,2013-02-17 13:55:00,
2013-02-17 05:57:00,39.0,36.3,30.38,East,90,0.0,0.0,90,0.00,,,0.00,LWC V2.11 B50,2013-02-17 13:57:00,
2013-02-17 06:00:00,40.6,37.6,30.38,ESE,112,0.0,0.0,89,0.00,,,0.00,LWC V2.11 B50,2013-02-17 14:00:00,
2013-02-17 06:05:00,50.1,46.0,30.24,SE,131,1.4,0.0,85,0.00,,,0.00,WeatherCatV1.15B25,2013-02-17 14:05:00,
2013-02-17 06:10:00,40.5,38.0,30.34,ESE,112,0.0,0.0,91,0.00,,,0.00,LWC V2.11 B50,2013-02-17 14:10:00,
2013-02-17 06:15:00,50.1,46.0,30.24,SE,131,1.4,0.0,85,0.00,,,0.00,WeatherCatV1.15B25,2013-02-17 14:15:00,
2013-02-17 06:20:00,40.5,38.0,30.34,ESE,112,0.0,0.0,91,0.00,,,0.00,LWC V2.11 B50,2013-02-17 14:20:00,
2013-02-17 06:25:00,50.1,46.0,30.24,SE,131,1.4,0.0,85,0.00,,,0.00,WeatherCatV1.15B25,2013-02-17 14:25:00,
2013-02-17 06:30:00,40.5,38.0,30.34,ESE,112,0.0,0.0,91,0.00,,,0.00,LWC V2.11 B50,2013-02-17 14:30:00,
2013-02-17 06:35:00,50.1,46.0,30.24,SE,131,1.4,0.0,85,0.00,,,0.00,WeatherCatV1.15B25,2013-02-17 14:35:00,
2013-02-17 06:40:00,40.5,38.0,30.34,ESE,112,0.0,0.0,91,0.00,,,0.00,LWC V2.11 B50,2013-02-17 14:40:00,
2013-02-17 06:45:00,50.1,46.0,30.24,SE,131,1.4,0.0,85,0.00,,,0.00,WeatherCatV1.15B25,2013-02-17 14:45:00,
2013-02-17 06:50:00,40.5,38.0,30.34,ESE,112,0.0,0.0,91,0.00,,,0.00,LWC V2.11 B50,2013-02-17 14:50:00,
2013-02-17 06:55:00,50.1,46.0,30.24,SE,131,1.4,0.0,85,0.00,,,0.00,WeatherCatV1.15B25,2013-02-17 14:55:00,
2013-02-17 07:00:00,40.5,38.0,30.34,ESE,112,0.0,0.0,91,0.00,,,0.00,LWC V2.11 B50,2013-02-17 15:00:00,
2013-02-17 07:05:00,50.1,46.0,30.24,SE,131,1.4,0.0,85,0.00,,,0.00,WeatherCatV1.15B25,2013-02-17 15:05:00,
2013-02-17 07:10:00,40.5,38.0,30.34,ESE,112,0.0,0.0,91,0.00,,,0.00,LWC V2.11 B50,2013-02-17 15:10:00,
2013-02-17 07:15:00,50.1,46.0,30.24,SE,131,1.4,0.0,85,0.00,,,0.00,WeatherCatV1.15B25,2013-02-17 15:15:00,
2013-02-17 07:20:00,40.5,38.0,30.34,ESE,112,0.0,0.0,91,0.00,,,0.00,LWC V2.11 B50,2013-02-17 15:20:00,
2013-02-17 07:25:00,50.1,46.0,30.24,SE,131,1.4,0.0,85,0.00,,,0.00,WeatherCatV1.15B25,2013-02-17 15:25:00,
2013-02-17 07:30:00,38.3,35.9,30.38,SW,225,0.0,0.0,91,0.00,,,0.00,LWC V2.11 B50,2013-02-17 15:30:00,
2013-02-17 07:35:00,38.3,35.9,30.38,SSE,157,0.0,0.0,91,0.00,,,0.00,LWC V2.11 B50,2013-02-17 15:35:00,
2013-02-17 07:40:00,38.5,36.0,30.39,SW,225,0.0,0.0,91,0.00,,,0.00,LWC V2.11 B50,2013-02-17 15:40:00,
2013-02-17 07:45:00,38.5,36.0,30.39,SSW,202,0.0,0.0,91,0.00,,,0.00,LWC V2.11 B50,2013-02-17 15:45:00,
2013-02-17 07:50:00,50.1,46.0,30.24,SE,131,1.4,0.0,85,0.00,,,0.00,WeatherCatV1.15B25,2013-02-17 15:50:00,
2013-02-17 07:51:00,38.5,36.0,30.39,South,180,0.0,0.0,91,0.00,,,0.00,LWC V2.11 B50,2013-02-17 15:51:00,
2013-02-17 07:55:00,50.1,46.0,30.24,SE,131,1.4,0.0,85,0.00,,,0.00,WeatherCatV1.15B25,2013-02-17 15:55:00,
2013-02-17 07:56:00,38.5,36.0,30.39,South,180,0.0,0.0,91,0.00,,,0.00,LWC V2.11 B50,2013-02-17 15:56:00,
2013-02-17 08:00:00,50.1,46.0,30.24,SE,131,1.4,0.0,85,0.00,,,0.00,WeatherCatV1.15B25,2013-02-17 16:00:00,
2013-02-17 08:01:00,38.7,36.2,30.39,SE,135,0.0,0.0,91,0.00,,,0.00,LWC V2.11 B50,2013-02-17 16:01:00,
2013-02-17 08:05:00,50.1,46.0,30.24,SE,131,1.4,0.0,85,0.00,,,0.00,WeatherCatV1.15B25,2013-02-17 16:05:00,
2013-02-17 08:06:00,38.8,36.4,30.39,East,90,0.0,0.0,91,0.00,,,0.00,LWC V2.11 B50,2013-02-17 16:06:00,
2013-02-17 08:10:00,50.1,46.0,30.24,SE,131,1.4,0.0,85,0.00,,,0.00,WeatherCatV1.15B25,2013-02-17 16:10:00,
2013-02-17 08:11:00,38.8,36.4,30.39,ENE,67,0.0,0.0,91,0.00,,,0.00,LWC V2.11 B50,2013-02-17 16:11:00,
2013-02-17 08:15:00,50.1,46.0,30.24,SE,131,1.4,0.0,85,0.00,,,0.00,WeatherCatV1.15B25,2013-02-17 16:15:00,
2013-02-17 08:16:00,39.0,36.9,30.39,East,90,0.0,0.0,92,0.00,,,0.00,LWC V2.11 B50,2013-02-17 16:16:00,
2013-02-17 08:20:00,50.1,46.0,30.24,SE,131,1.4,0.0,85,0.00,,,0.00,WeatherCatV1.15B25,2013-02-17 16:20:00,
2013-02-17 08:21:00,39.0,36.9,30.39,East,90,0.0,0.0,92,0.00,,,0.00,LWC V2.11 B50,2013-02-17 16:21:00,
2013-02-17 08:25:00,50.1,46.0,30.24,SE,131,1.4,0.0,85,0.00,,,0.00,WeatherCatV1.15B25,2013-02-17 16:25:00,
2013-02-17 08:26:00,39.0,36.9,30.39,East,90,0.0,0.0,92,0.00,,,0.00,LWC V2.11 B50,2013-02-17 16:26:00,
2013-02-17 08:30:00,50.1,46.0,30.24,SE,131,1.4,0.0,85,0.00,,,0.00,WeatherCatV1.15B25,2013-02-17 16:30:00,
2013-02-17 08:31:00,39.0,36.9,30.39,East,90,0.0,0.0,92,0.00,,,0.00,LWC V2.11 B50,2013-02-17 16:31:00,
2013-02-17 08:35:00,50.1,46.0,30.24,SE,131,1.4,0.0,85,0.00,,,0.00,WeatherCatV1.15B25,2013-02-17 16:35:00,
2013-02-17 08:36:00,39.0,36.9,30.39,NNE,22,0.0,0.0,92,0.00,,,0.00,LWC V2.11 B50,2013-02-17 16:36:00,
2013-02-17 08:40:00,50.1,46.0,30.24,SE,131,1.4,0.0,85,0.00,,,0.00,WeatherCatV1.15B25,2013-02-17 16:40:00,
2013-02-17 08:41:00,39.4,37.2,30.39,NNE,22,0.0,0.0,92,0.00,,,0.00,LWC V2.11 B50,2013-02-17 16:41:00,
2013-02-17 08:45:00,50.1,46.0,30.24,SE,131,1.4,0.0,85,0.00,,,0.00,WeatherCatV1.15B25,2013-02-17 16:45:00,
2013-02-17 08:46:00,39.4,37.2,30.39,ENE,67,0.0,0.0,92,0.00,,,0.00,LWC V2.11 B50,2013-02-17 16:46:00,
2013-02-17 08:50:00,50.1,46.0,30.24,SE,131,1.4,0.0,85,0.00,,,0.00,WeatherCatV1.15B25,2013-02-17 16:50:00,
2013-02-17 08:51:00,39.6,37.4,30.39,ENE,67,0.0,0.0,92,0.00,,,0.00,LWC V2.11 B50,2013-02-17 16:51:00,
2013-02-17 08:52:00,39.7,37.4,30.39,SW,225,0.0,0.0,92,0.00,,,0.00,LWC V2.11 B50,2013-02-17 16:52:00,
2013-02-17 08:55:00,50.1,46.0,30.24,SE,131,1.4,0.0,85,0.00,,,0.00,WeatherCatV1.15B25,2013-02-17 16:55:00,
2013-02-17 08:57:00,39.7,37.6,30.39,SSW,202,0.0,0.0,92,0.00,,,0.00,LWC V2.11 B50,2013-02-17 16:57:00,
2013-02-17 09:00:00,50.1,46.0,30.24,SE,131,1.4,0.0,85,0.00,,,0.00,WeatherCatV1.15B25,2013-02-17 17:00:00,
2013-02-17 09:02:00,39.9,37.8,30.39,SSW,202,0.0,0.0,92,0.00,,,0.00,LWC V2.11 B50,2013-02-17 17:02:00,
2013-02-17 09:05:00,50.1,46.0,30.24,SE,131,1.4,0.0,85,0.00,,,0.00,WeatherCatV1.15B25,2013-02-17 17:05:00,
2013-02-17 09:07:00,39.9,37.8,30.40,SW,225,0.0,0.0,92,0.00,,,0.00,LWC V2.11 B50,2013-02-17 17:07:00,
2013-02-17 09:10:00,50.1,46.0,30.24,SE,131,1.4,0.0,85,0.00,,,0.00,WeatherCatV1.15B25,2013-02-17 17:10:00,
2013-02-17 09:12:00,39.9,37.8,30.40,SSW,202,0.0,0.0,92,0.00,,,0.00,LWC V2.11 B50,2013-02-17 17:12:00,
2013-02-17 09:15:00,50.1,46.0,30.24,SE,131,1.4,0.0,85,0.00,,,0.00,WeatherCatV1.15B25,2013-02-17 17:15:00,
2013-02-17 09:18:00,40.1,37.9,30.39,WSW,247,0.0,0.0,92,0.00,,,0.00,LWC V2.11 B50,2013-02-17 17:18:00,
2013-02-17 09:20:00,50.1,46.0,30.24,SE,131,1.4,0.0,85,0.00,,,0.00,WeatherCatV1.15B25,2013-02-17 17:20:00,
2013-02-17 09:23:00,40.3,38.1,30.40,WSW,247,0.0,0.0,92,0.00,,,0.00,LWC V2.11 B50,2013-02-17 17:23:00,
2013-02-17 09:25:00,50.1,46.0,30.24,SE,131,1.4,0.0,85,0.00,,,0.00,WeatherCatV1.15B25,2013-02-17 17:25:00,
2013-02-17 09:28:00,40.3,38.1,30.40,South,180,0.0,0.0,92,0.00,,,0.00,LWC V2.11 B50,2013-02-17 17:28:00,
2013-02-17 09:30:00,50.1,46.0,30.24,SE,131,1.4,0.0,85,0.00,,,0.00,WeatherCatV1.15B25,2013-02-17 17:30:00,
2013-02-17 09:33:00,40.3,38.0,30.40,WNW,292,0.0,0.0,91,0.00,,,0.00,LWC V2.11 B50,2013-02-17 17:33:00,
2013-02-17 09:35:00,50.1,46.0,30.24,SE,131,1.4,0.0,85,0.00,,,0.00,WeatherCatV1.15B25,2013-02-17 17:35:00,
2013-02-17 09:38:00,40.6,38.2,30.40,WSW,247,0.0,0.0,91,0.00,,,0.00,LWC V2.11 B50,2013-02-17 17:38:00,
2013-02-17 09:40:00,50.1,46.0,30.24,SE,131,1.4,0.0,85,0.00,,,0.00,WeatherCatV1.15B25,2013-02-17 17:40:00,
2013-02-17 09:43:00,40.6,38.2,30.40,WNW,292,0.0,0.0,91,0.02,,,0.02,LWC V2.11 B50,2013-02-17 17:43:00,
2013-02-17 09:45:00,50.1,46.0,30.24,SE,131,1.4,0.0,85,0.00,,,0.00,WeatherCatV1.15B25,2013-02-17 17:45:00,
2013-02-17 09:48:00,40.6,38.2,30.40,NW,315,0.0,0.0,91,0.02,,,0.02,LWC V2.11 B50,2013-02-17 17:48:00,
2013-02-17 09:50:00,50.1,46.0,30.24,SE,131,1.4,0.0,85,0.00,,,0.00,WeatherCatV1.15B25,2013-02-17 17:50:00,
2013-02-17 09:53:00,40.8,38.4,30.40,NW,315,0.0,0.0,91,0.02,,,0.02,LWC V2.11 B50,2013-02-17 17:53:00,
2013-02-17 09:55:00,50.1,46.0,30.24,SE,131,1.4,0.0,85,0.00,,,0.00,WeatherCatV1.15B25,2013-02-17 17:55:00,
2013-02-17 09:58:00,40.8,38.4,30.40,NNW,337,0.0,0.0,91,0.02,,,0.02,LWC V2.11 B50,2013-02-17 17:58:00,
2013-02-17 10:00:00,50.1,46.0,30.24,SE,131,1.4,0.0,85,0.00,,,0.00,WeatherCatV1.15B25,2013-02-17 18:00:00,
2013-02-17 10:03:00,40.8,38.4,30.40,NW,315,0.0,0.0,91,0.02,,,0.02,LWC V2.11 B50,2013-02-17 18:03:00,
2013-02-17 10:05:00,50.1,46.0,30.24,SE,131,1.4,0.0,85,0.00,,,0.00,WeatherCatV1.15B25,2013-02-17 18:05:00,
2013-02-17 10:08:00,41.0,38.6,30.40,WNW,292,0.0,0.0,91,0.02,,,0.02,LWC V2.11 B50,2013-02-17 18:08:00,
2013-02-17 10:10:00,50.1,46.0,30.24,SE,131,1.4,0.0,85,0.00,,,0.00,WeatherCatV1.15B25,2013-02-17 18:10:00,
2013-02-17 10:13:00,41.2,39.0,30.40,WNW,292,0.0,0.0,92,0.02,,,0.02,LWC V2.11 B50,2013-02-17 18:13:00,
2013-02-17 10:15:00,50.1,46.0,30.24,SE,131,1.4,0.0,85,0.00,,,0.00,WeatherCatV1.15B25,2013-02-17 18:15:00,
2013-02-17 10:18:00,41.4,39.2,30.41,NW,315,0.0,0.0,92,0.02,,,0.02,LWC V2.11 B50,2013-02-17 18:18:00,
2013-02-17 10:20:00,50.1,46.0,30.24,SE,131,1.4,0.0,85,0.00,,,0.00,WeatherCatV1.15B25,2013-02-17 18:20:00,
2013-02-17 10:23:00,41.4,39.2,30.41,NW,315,0.0,0.0,92,0.02,,,0.02,LWC V2.11 B50,2013-02-17 18:23:00,
2013-02-17 10:25:00,50.1,46.0,30.24,SE,131,1.4,0.0,85,0.00,,,0.00,WeatherCatV1.15B25,2013-02-17 18:25:00,
2013-02-17 10:28:00,41.4,39.2,30.41,NW,315,0.0,0.0,92,0.02,,,0.02,LWC V2.11 B50,2013-02-17 18:28:00,
2013-02-17 10:30:00,50.1,46.0,30.24,SE,130,1.4,0.0,85,0.00,,,0.00,WeatherCatV1.15B25,2013-02-17 18:30:00,
2013-02-17 10:34:00,41.4,39.2,30.41,West,270,0.0,0.0,92,0.02,,,0.02,LWC V2.11 B50,2013-02-17 18:34:00,
2013-02-17 10:35:00,50.1,46.0,30.24,SE,130,1.4,0.0,85,0.00,,,0.00,WeatherCatV1.15B25,2013-02-17 18:35:00,
2013-02-17 10:39:00,41.5,39.1,30.41,North,0,0.0,0.0,91,0.00,,,0.02,LWC V2.11 B50,2013-02-17 18:39:00,
2013-02-17 10:40:00,50.1,46.0,30.24,SE,130,1.4,0.0,85,0.00,,,0.00,WeatherCatV1.15B25,2013-02-17 18:40:00,
2013-02-17 10:44:00,41.5,39.1,30.41,WNW,292,0.0,0.0,91,0.00,,,0.02,LWC V2.11 B50,2013-02-17 18:44:00,
2013-02-17 10:45:00,50.1,46.0,30.24,SE,130,1.4,0.0,85,0.00,,,0.00,WeatherCatV1.15B25,2013-02-17 18:45:00,
2013-02-17 10:49:00,41.5,39.1,30.40,NNW,337,0.0,0.0,91,0.00,,,0.02,LWC V2.11 B50,2013-02-17 18:49:00,
2013-02-17 10:50:00,50.1,46.0,30.24,SE,130,1.4,0.0,85,0.00,,,0.00,WeatherCatV1.15B25,2013-02-17 18:50:00,
2013-02-17 10:54:00,41.5,39.1,30.40,West,270,0.0,0.0,91,0.00,,,0.02,LWC V2.11 B50,2013-02-17 18:54:00,
2013-02-17 10:55:00,50.1,46.0,30.24,SE,130,1.4,0.0,85,0.00,,,0.00,WeatherCatV1.15B25,2013-02-17 18:55:00,
2013-02-17 10:59:00,41.7,39.3,30.40,WNW,292,0.0,0.0,91,0.00,,,0.02,LWC V2.11 B50,2013-02-17 18:59:00,
2013-02-17 11:00:00,50.1,46.0,30.24,SE,130,1.4,0.0,85,0.00,,,0.00,WeatherCatV1.15B25,2013-02-17 19:00:00,
2013-02-17 11:04:00,41.7,39.3,30.40,South,180,0.0,0.0,91,0.00,,,0.02,LWC V2.11 B50,2013-02-17 19:04:00,
2013-02-17 11:05:00,50.1,46.0,30.24,SE,130,1.4,0.0,85,0.00,,,0.00,WeatherCatV1.15B25,2013-02-17 19:05:00,
2013-02-17 11:09:00,42.1,39.7,30.40,WNW,292,0.0,0.0,91,0.00,,,0.02,LWC V2.11 B50,2013-02-17 19:09:00,
2013-02-17 11:10:00,50.1,46.0,30.24,SE,130,1.4,0.0,85,0.00,,,0.00,WeatherCatV1.15B25,2013-02-17 19:10:00,
2013-02-17 11:14:00,42.1,39.7,30.40,West,270,0.0,0.0,91,0.00,,,0.02,LWC V2.11 B50,2013-02-17 19:14:00,
2013-02-17 11:15:00,50.1,46.0,30.24,SE,130,1.4,0.0,85,0.00,,,0.00,WeatherCatV1.15B25,2013-02-17 19:15:00,
2013-02-17 11:19:00,42.3,39.8,30.40,SW,225,0.0,0.0,91,0.00,,,0.02,LWC V2.11 B50,2013-02-17 19:19:00,
2013-02-17 11:20:00,50.1,46.0,30.24,SE,130,1.4,0.0,85,0.00,,,0.00,WeatherCatV1.15B25,2013-02-17 19:20:00,
2013-02-17 11:24:00,42.4,40.0,30.40,NW,315,0.0,0.0,91,0.00,,,0.02,LWC V2.11 B50,2013-02-17 19:24:00,
2013-02-17 11:25:00,50.1,46.0,30.24,SE,130,1.4,0.0,85,0.00,,,0.00,WeatherCatV1.15B25,2013-02-17 19:25:00,
2013-02-17 11:29:00,42.4,40.0,30.40,WNW,292,0.0,0.0,91,0.00,,,0.02,LWC V2.11 B50,2013-02-17 19:29:00,
2013-02-17 11:30:00,50.1,46.0,30.24,SE,130,1.4,0.0,85,0.00,,,0.00,WeatherCatV1.15B25,2013-02-17 19:30:00,
2013-02-17 11:34:00,42.6,40.2,30.40,WSW,247,0.0,0.0,91,0.00,,,0.02,LWC V2.11 B50,2013-02-17 19:34:00,
2013-02-17 11:35:00,50.1,46.0,30.24,SE,130,1.4,0.0,85,0.00,,,0.00,WeatherCatV1.15B25,2013-02-17 19:35:00,
2013-02-17 11:39:00,43.0,40.5,30.40,West,270,0.0,0.0,91,0.00,,,0.02,LWC V2.11 B50,2013-02-17 19:39:00,
2013-02-17 11:40:00,50.1,46.0,30.24,SE,130,1.4,0.0,85,0.00,,,0.00,WeatherCatV1.15B25,2013-02-17 19:40:00,
2013-02-17 11:44:00,43.0,40.5,30.40,WSW,247,0.0,0.0,91,0.00,,,0.02,LWC V2.11 B50,2013-02-17 19:44:00,
2013-02-17 11:45:00,50.1,46.0,30.24,SE,130,1.4,0.0,85,0.00,,,0.00,WeatherCatV1.15B25,2013-02-17 19:45:00,
2013-02-17 11:50:00,43.2,40.7,30.39,SW,225,0.0,0.0,91,0.00,,,0.02,LWC V2.11 B50,2013-02-17 19:50:00,
2013-02-17 11:55:00,43.3,40.9,30.40,SSW,202,0.0,0.0,91,0.00,,,0.02,LWC V2.11 B50,2013-02-17 19:55:00,
2013-02-17 12:00:00,43.3,40.9,30.39,West,270,0.0,0.0,91,0.00,,,0.02,LWC V2.11 B50,2013-02-17 20:00:00,
2013-02-17 12:05:00,43.3,40.9,30.39,West,270,0.0,0.0,91,0.00,,,0.02,LWC V2.11 B50,2013-02-17 20:05:00,
2013-02-17 12:10:00,43.5,41.1,30.39,West,270,0.0,0.0,91,0.00,,,0.02,LWC V2.11 B50,2013-02-17 20:10:00,
2013-02-17 12:15:00,43.5,41.1,30.39,NW,315,0.0,0.0,91,0.00,,,0.02,LWC V2.11 B50,2013-02-17 20:15:00,
2013-02-17 12:20:00,43.7,41.3,30.39,WSW,247,0.0,0.0,91,0.00,,,0.02,LWC V2.11 B50,2013-02-17 20:20:00,
2013-02-17 12:25:00,43.9,41.5,30.39,WSW,247,0.0,0.0,91,0.00,,,0.02,LWC V2.11 B50,2013-02-17 20:25:00,
2013-02-17 12:30:00,44.1,41.6,30.39,WSW,247,0.0,0.0,91,0.00,,,0.02,LWC V2.11 B50,2013-02-17 20:30:00,
2013-02-17 12:35:00,44.4,41.7,30.38,WNW,292,0.0,0.0,90,0.00,,,0.02,LWC V2.11 B50,2013-02-17 20:35:00,
2013-02-17 12:40:00,44.6,41.9,30.39,WSW,247,0.0,0.0,90,0.00,,,0.02,LWC V2.11 B50,2013-02-17 20:40:00,
2013-02-17 12:45:00,45.0,42.3,30.39,West,270,0.0,0.0,90,0.00,,,0.02,LWC V2.11 B50,2013-02-17 20:45:00,
2013-02-17 12:50:00,45.3,42.6,30.39,West,270,0.0,0.0,90,0.00,,,0.02,LWC V2.11 B50,2013-02-17 20:50:00,
2013-02-17 12:55:00,45.5,42.8,30.38,WNW,292,0.0,0.0,90,0.00,,,0.02,LWC V2.11 B50,2013-02-17 20:55:00,
2013-02-17 13:00:00,45.9,43.2,30.38,West,270,0.0,0.0,90,0.00,,,0.02,LWC V2.11 B50,2013-02-17 21:00:00,
2013-02-17 13:05:00,50.1,46.0,30.24,SE,130,1.4,0.0,85,0.00,,,0.00,WeatherCatV1.15B25,2013-02-17 21:05:00,
2013-02-17 13:06:00,46.0,43.3,30.38,WSW,247,0.0,0.0,90,0.00,,,0.02,LWC V2.11 B50,2013-02-17 21:06:00,
2013-02-17 13:10:00,50.1,46.0,30.24,SE,130,1.4,0.0,85,0.00,,,0.00,WeatherCatV1.15B25,2013-02-17 21:10:00,
2013-02-17 13:11:00,46.0,43.0,30.38,West,270,0.0,0.0,89,0.00,,,0.02,LWC V2.11 B50,2013-02-17 21:11:00,
2013-02-17 13:15:00,50.1,46.0,30.24,SE,130,1.4,0.0,85,0.00,,,0.00,WeatherCatV1.15B25,2013-02-17 21:15:00,
2013-02-17 13:16:00,46.2,43.2,30.38,WNW,292,0.0,0.0,89,0.00,,,0.02,LWC V2.11 B50,2013-02-17 21:16:00,
2013-02-17 13:20:00,50.1,46.0,30.24,SE,130,1.4,0.0,85,0.00,,,0.00,WeatherCatV1.15B25,2013-02-17 21:20:00,
2013-02-17 13:21:00,46.6,43.2,30.38,WNW,292,0.0,0.0,88,0.00,,,0.02,LWC V2.11 B50,2013-02-17 21:21:00,
2013-02-17 13:25:00,50.1,46.0,30.24,SE,130,1.4,0.0,85,0.00,,,0.00,WeatherCatV1.15B25,2013-02-17 21:25:00,
2013-02-17 13:26:00,46.8,43.7,30.38,NNW,337,0.0,0.0,89,0.00,,,0.02,LWC V2.11 B50,2013-02-17 21:26:00,
2013-02-17 13:30:00,50.1,46.0,30.24,SE,130,1.4,0.0,85,0.00,,,0.00,WeatherCatV1.15B25,2013-02-17 21:30:00,
2013-02-17 13:31:00,46.9,43.6,30.38,NW,315,0.0,0.0,88,0.00,,,0.02,LWC V2.11 B50,2013-02-17 21:31:00,
2013-02-17 13:35:00,50.1,46.0,30.24,SE,130,1.4,0.0,85,0.00,,,0.00,WeatherCatV1.15B25,2013-02-17 21:35:00,
2013-02-17 13:36:00,47.3,44.0,30.37,WNW,292,0.0,0.0,88,0.00,,,0.02,LWC V2.11 B50,2013-02-17 21:36:00,
2013-02-17 13:40:00,50.1,46.0,30.24,SE,130,1.4,0.0,85,0.00,,,0.00,WeatherCatV1.15B25,2013-02-17 21:40:00,
2013-02-17 13:41:00,48.0,44.7,30.37,NNW,337,0.0,0.0,88,0.00,,,0.02,LWC V2.11 B50,2013-02-17 21:41:00,
2013-02-17 13:45:00,50.1,46.0,30.24,SE,130,1.4,0.0,85,0.00,,,0.00,WeatherCatV1.15B25,2013-02-17 21:45:00,
2013-02-17 13:46:00,48.6,44.9,30.37,West,270,0.0,0.0,87,0.00,,,0.02,LWC V2.11 B50,2013-02-17 21:46:00,
2013-02-17 13:50:00,50.1,46.0,30.24,SE,130,1.4,0.0,85,0.00,,,0.00,WeatherCatV1.15B25,2013-02-17 21:50:00,
2013-02-17 13:51:00,48.9,45.2,30.37,NW,315,0.0,0.0,87,0.00,,,0.02,LWC V2.11 B50,2013-02-17 21:51:00,
2013-02-17 13:55:00,50.1,46.0,30.24,SE,130,1.4,0.0,85,0.00,,,0.00,WeatherCatV1.15B25,2013-02-17 21:55:00,
2013-02-17 13:56:00,49.6,45.6,30.37,NW,315,0.0,0.0,86,0.00,,,0.02,LWC V2.11 B50,2013-02-17 21:56:00,
2013-02-17 14:00:00,50.1,46.0,30.24,SE,130,1.4,0.0,85,0.00,,,0.00,WeatherCatV1.15B25,2013-02-17 22:00:00,
2013-02-17 14:01:00,49.8,45.4,30.37,North,0,0.0,0.0,85,0.00,,,0.02,LWC V2.11 B50,2013-02-17 22:01:00,
2013-02-17 14:05:00,50.1,46.0,30.24,SE,130,1.4,0.0,85,0.00,,,0.00,WeatherCatV1.15B25,2013-02-17 22:05:00,
2013-02-17 14:06:00,49.8,45.4,30.37,NE,45,0.0,0.0,85,0.00,,,0.02,LWC V2.11 B50,2013-02-17 22:06:00,
2013-02-17 14:10:00,50.1,46.0,30.24,SE,130,1.4,0.0,85,0.00,,,0.00,WeatherCatV1.15B25,2013-02-17 22:10:00,
2013-02-17 14:11:00,50.4,45.6,30.36,NNW,337,0.0,0.0,84,0.00,,,0.02,LWC V2.11 B50,2013-02-17 22:11:00,
2013-02-17 14:15:00,50.1,46.0,30.24,SE,130,1.4,0.0,85,0.00,,,0.00,WeatherCatV1.15B25,2013-02-17 22:15:00,
2013-02-17 14:16:00,50.5,45.8,30.36,NW,315,0.0,0.0,84,0.00,,,0.02,LWC V2.11 B50,2013-02-17 22:16:00,
2013-02-17 14:20:00,50.1,45.9,30.24,SE,130,1.4,0.0,85,0.00,,,0.00,WeatherCatV1.15B25,2013-02-17 22:20:00,
2013-02-17 14:22:00,50.7,45.7,30.36,North,0,0.0,0.0,83,0.00,,,0.02,LWC V2.11 B50,2013-02-17 22:22:00,
2013-02-17 14:25:00,50.1,45.9,30.24,SE,130,1.4,0.0,85,0.00,,,0.00,WeatherCatV1.15B25,2013-02-17 22:25:00,
2013-02-17 14:27:00,51.1,45.8,30.36,NNW,337,0.0,0.0,82,0.00,,,0.02,LWC V2.11 B50,2013-02-17 22:27:00,
2013-02-17 14:30:00,50.1,45.9,30.24,SE,130,1.4,0.0,85,0.00,,,0.00,WeatherCatV1.15B25,2013-02-17 22:30:00,
2013-02-17 14:32:00,51.1,45.8,30.36,North,0,0.0,0.0,82,0.00,,,0.02,LWC V2.11 B50,2013-02-17 22:32:00,
2013-02-17 14:35:00,50.1,45.9,30.24,SE,130,1.4,0.0,85,0.00,,,0.00,WeatherCatV1.15B25,2013-02-17 22:35:00,
2013-02-17 14:37:00,51.1,45.4,30.36,North,0,0.0,0.0,81,0.00,,,0.02,LWC V2.11 B50,2013-02-17 22:37:00,
2013-02-17 14:40:00,50.1,45.9,30.24,SE,130,1.4,0.0,85,0.00,,,0.00,WeatherCatV1.15B25,2013-02-17 22:40:00,
2013-02-17 14:42:00,50.9,45.3,30.36,NNW,337,0.0,0.0,81,0.00,,,0.02,LWC V2.11 B50,2013-02-17 22:42:00,
2013-02-17 14:45:00,50.1,45.9,30.24,SE,130,1.4,0.0,85,0.00,,,0.00,WeatherCatV1.15B25,2013-02-17 22:45:00,
2013-02-17 14:47:00,50.7,45.1,30.36,North,0,0.0,0.0,81,0.00,,,0.02,LWC V2.11 B50,2013-02-17 22:47:00,
2013-02-17 14:50:00,50.1,45.9,30.24,SE,130,1.4,0.0,85,0.00,,,0.00,WeatherCatV1.15B25,2013-02-17 22:50:00,
2013-02-17 14:52:00,50.7,44.6,30.36,NNW,337,0.0,0.0,80,0.00,,,0.02,LWC V2.11 B50,2013-02-17 22:52:00,
2013-02-17 14:55:00,50.1,45.9,30.24,SE,130,1.4,0.0,85,0.00,,,0.00,WeatherCatV1.15B25,2013-02-17 22:55:00,
2013-02-17 14:57:00,50.4,44.4,30.36,North,0,0.0,0.0,80,0.00,,,0.02,LWC V2.11 B50,2013-02-17 22:57:00,
2013-02-17 15:00:00,50.1,45.9,30.24,SE,130,1.4,0.0,85,0.00,,,0.00,WeatherCatV1.15B25,2013-02-17 23:00:00,
2013-02-17 15:02:00,50.2,44.2,30.36,NNW,337,0.0,0.0,80,0.00,,,0.02,LWC V2.11 B50,2013-02-17 23:02:00,
2013-02-17 15:05:00,50.1,45.9,30.24,SE,130,1.4,0.0,85,0.00,,,0.00,WeatherCatV1.15B25,2013-02-17 23:05:00,
2013-02-17 15:07:00,50.2,44.2,30.36,North,0,0.0,0.0,80,0.00,,,0.02,LWC V2.11 B50,2013-02-17 23:07:00,
2013-02-17 15:10:00,50.1,45.9,30.24,SE,130,1.4,0.0,85,0.00,,,0.00,WeatherCatV1.15B25,2013-02-17 23:10:00,
2013-02-17 15:12:00,50.0,44.1,30.36,NNW,337,0.0,0.0,80,0.00,,,0.02,LWC V2.11 B50,2013-02-17 23:12:00,
2013-02-17 15:15:00,50.1,45.9,30.24,SE,130,1.4,0.0,85,0.00,,,0.00,WeatherCatV1.15B25,2013-02-17 23:15:00,
2013-02-17 15:17:00,49.8,43.9,30.36,North,0,0.0,0.0,80,0.00,,,0.02,LWC V2.11 B50,2013-02-17 23:17:00,
2013-02-17 15:20:00,50.1,45.9,30.24,SE,130,1.4,0.0,85,0.00,,,0.00,WeatherCatV1.15B25,2013-02-17 23:20:00,
2013-02-17 15:22:00,49.8,43.9,30.36,NNW,337,0.0,0.0,80,0.00,,,0.02,LWC V2.11 B50,2013-02-17 23:22:00,
2013-02-17 15:25:00,50.1,45.9,30.24,SE,130,1.4,0.0,85,0.00,,,0.00,WeatherCatV1.15B25,2013-02-17 23:25:00,
2013-02-17 15:27:00,49.6,43.7,30.36,North,0,0.0,0.0,80,0.00,,,0.02,LWC V2.11 B50,2013-02-17 23:27:00,
2013-02-17 15:30:00,50.1,45.9,30.24,SE,130,1.4,0.0,85,0.00,,,0.00,WeatherCatV1.15B25,2013-02-17 23:30:00,
2013-02-17 15:32:00,49.6,43.7,30.35,NNW,337,0.0,0.0,80,0.00,,,0.02,LWC V2.11 B50,2013-02-17 23:32:00,
2013-02-17 15:35:00,50.1,45.9,30.24,SE,130,1.4,0.0,85,0.00,,,0.00,WeatherCatV1.15B25,2013-02-17 23:35:00,
2013-02-17 15:38:00,49.3,43.3,30.35,North,0,0.0,0.0,80,0.00,,,0.02,LWC V2.11 B50,2013-02-17 23:38:00,
2013-02-17 15:40:00,50.1,45.9,30.24,SE,130,1.4,0.0,85,0.00,,,0.00,WeatherCatV1.15B25,2013-02-17 23:40:00,
2013-02-17 15:43:00,49.3,43.6,30.35,North,0,0.0,0.0,81,0.00,,,0.02,LWC V2.11 B50,2013-02-17 23:43:00,
2013-02-17 15:45:00,50.1,45.9,30.24,SE,130,1.4,0.0,85,0.00,,,0.00,WeatherCatV1.15B25,2013-02-17 23:45:00,
2013-02-17 15:48:00,49.1,43.5,30.34,NNW,337,0.0,0.0,81,0.00,,,0.02,LWC V2.11 B50,2013-02-17 23:48:00,
2013-02-17 15:50:00,50.1,45.9,30.24,SE,130,1.4,0.0,85,0.00,,,0.00,WeatherCatV1.15B25,2013-02-17 23:50:00,
2013-02-17 15:53:00,48.9,43.3,30.35,North,0,0.0,0.0,81,0.00,,,0.02,LWC V2.11 B50,2013-02-17 23:53:00,
2013-02-17 15:55:00,50.1,45.9,30.24,SE,130,1.4,0.0,85,0.00,,,0.00,WeatherCatV1.15B25,2013-02-17 23:55:00,
2013-02-17 15:58:00,48.9,43.0,30.34,North,0,0.0,0.0,80,0.00,,,0.02,LWC V2.11 B50,2013-02-17 23:58:00,
2013-02-17 16:00:00,50.1,45.9,30.24,SE,130,1.4,0.0,85,0.00,,,0.00,WeatherCatV1.15B25,2013-02-18 00:00:00,
2013-02-17 16:03:00,48.7,43.1,30.34,NNE,22,0.0,0.0,81,0.00,,,0.02,LWC V2.11 B50,2013-02-18 00:03:00,
2013-02-17 16:05:00,50.1,45.9,30.24,SE,130,1.4,0.0,85,0.00,,,0.00,WeatherCatV1.15B25,2013-02-18 00:05:00,
2013-02-17 16:08:00,48.6,42.9,30.34,NNE,22,0.0,0.0,81,0.00,,,0.02,LWC V2.11 B50,2013-02-18 00:08:00,
2013-02-17 16:10:00,50.1,45.9,30.24,SE,130,1.4,0.0,85,0.00,,,0.00,WeatherCatV1.15B25,2013-02-18 00:10:00,
2013-02-17 16:13:00,48.6,42.9,30.34,NNW,337,0.0,0.0,81,0.00,,,0.02,LWC V2.11 B50,2013-02-18 00:13:00,
2013-02-17 16:15:00,50.1,45.9,30.24,SE,130,1.4,0.0,85,0.00,,,0.00,WeatherCatV1.15B25,2013-02-18 00:15:00,
2013-02-17 16:18:00,48.6,42.9,30.34,NNW,337,0.0,0.0,81,0.00,,,0.02,LWC V2.11 B50,2013-02-18 00:18:00,
2013-02-17 16:20:00,50.1,45.9,30.24,SE,130,1.4,0.0,85,0.00,,,0.00,WeatherCatV1.15B25,2013-02-18 00:20:00,
2013-02-17 16:23:00,48.4,42.7,30.34,North,0,0.0,0.0,81,0.00,,,0.02,LWC V2.11 B50,2013-02-18 00:23:00,
2013-02-17 16:25:00,50.1,45.9,30.24,SE,130,1.4,0.0,85,0.00,,,0.00,WeatherCatV1.15B25,2013-02-18 00:25:00,
2013-02-17 16:28:00,48.4,42.6,30.33,North,0,0.0,0.0,81,0.00,,,0.02,LWC V2.11 B50,2013-02-18 00:28:00,
2013-02-17 16:30:00,50.1,45.9,30.24,SE,130,1.4,0.0,85,0.00,,,0.00,WeatherCatV1.15B25,2013-02-18 00:30:00,
2013-02-17 16:33:00,48.0,42.4,30.34,NNE,22,0.0,0.0,81,0.00,,,0.02,LWC V2.11 B50,2013-02-18 00:33:00,
2013-02-17 16:35:00,50.1,45.9,30.24,SE,130,1.4,0.0,85,0.00,,,0.00,WeatherCatV1.15B25,2013-02-18 00:35:00,
2013-02-17 16:38:00,48.0,42.4,30.33,NNE,22,0.0,0.0,81,0.00,,,0.02,LWC V2.11 B50,2013-02-18 00:38:00,
2013-02-17 16:40:00,50.1,45.9,30.24,SE,130,1.4,0.0,85,0.00,,,0.00,WeatherCatV1.15B25,2013-02-18 00:40:00,
2013-02-17 16:43:00,47.8,42.2,30.33,NNE,22,0.0,0.0,81,0.00,,,0.02,LWC V2.11 B50,2013-02-18 00:43:00,
2013-02-17 16:45:00,50.1,45.9,30.24,SE,130,1.4,0.0,85,0.00,,,0.00,WeatherCatV1.15B25,2013-02-18 00:45:00,
2013-02-17 16:49:00,47.8,42.2,30.33,NNE,22,0.0,0.0,81,0.00,,,0.02,LWC V2.11 B50,2013-02-18 00:49:00,
2013-02-17 16:50:00,50.1,45.9,30.24,SE,130,1.4,0.0,85,0.00,,,0.00,WeatherCatV1.15B25,2013-02-18 00:50:00,
2013-02-17 16:54:00,47.5,41.9,30.33,NNE,22,0.0,0.0,81,0.00,,,0.02,LWC V2.11 B50,2013-02-18 00:54:00,
2013-02-17 16:55:00,50.1,45.9,30.24,SE,130,1.4,0.0,85,0.00,,,0.00,WeatherCatV1.15B25,2013-02-18 00:55:00,
2013-02-17 16:59:00,47.1,41.6,30.32,NNE,22,0.0,0.0,81,0.00,,,0.02,LWC V2.11 B50,2013-02-18 00:59:00,
2013-02-17 17:00:00,50.1,45.9,30.24,SE,130,1.4,0.0,85,0.00,,,0.00,WeatherCatV1.15B25,2013-02-18 01:00:00,
2013-02-17 17:04:00,46.9,41.4,30.32,NNE,22,0.0,0.0,81,0.00,,,0.02,LWC V2.11 B50,2013-02-18 01:04:00,
2013-02-17 17:05:00,50.1,45.9,30.24,SE,130,1.4,0.0,85,0.00,,,0.00,WeatherCatV1.15B25,2013-02-18 01:05:00,
2013-02-17 17:09:00,46.8,41.3,30.32,NNE,22,0.0,0.0,81,0.00,,,0.02,LWC V2.11 B50,2013-02-18 01:09:00,
2013-02-17 17:10:00,50.1,45.9,30.24,SE,130,1.4,0.0,85,0.00,,,0.00,WeatherCatV1.15B25,2013-02-18 01:10:00,
2013-02-17 17:14:00,46.6,41.1,30.32,NNE,22,0.0,0.0,81,0.00,,,0.02,LWC V2.11 B50,2013-02-18 01:14:00,
2013-02-17 17:15:00,50.1,45.9,30.24,SE,130,1.4,0.0,85,0.00,,,0.00,WeatherCatV1.15B25,2013-02-18 01:15:00,
2013-02-17 17:19:00,46.6,41.1,30.32,NNE,22,0.0,0.0,81,0.00,,,0.02,LWC V2.11 B50,2013-02-18 01:19:00,
2013-02-17 17:20:00,50.1,45.9,30.24,SE,130,1.4,0.0,85,0.00,,,0.00,WeatherCatV1.15B25,2013-02-18 01:20:00,
2013-02-17 17:24:00,46.2,40.8,30.32,NE,45,0.0,0.0,81,0.00,,,0.02,LWC V2.11 B50,2013-02-18 01:24:00,
2013-02-17 17:25:00,50.1,45.9,30.24,SE,130,1.4,0.0,85,0.00,,,0.00,WeatherCatV1.15B25,2013-02-18 01:25:00,
2013-02-17 17:29:00,46.0,40.6,30.32,NE,45,0.0,0.0,81,0.00,,,0.02,LWC V2.11 B50,2013-02-18 01:29:00,
2013-02-17 17:30:00,50.1,45.9,30.24,SE,130,1.4,0.0,85,0.00,,,0.00,WeatherCatV1.15B25,2013-02-18 01:30:00,
2013-02-17 17:34:00,45.7,40.5,30.32,NE,45,0.0,0.0,82,0.00,,,0.02,LWC V2.11 B50,2013-02-18 01:34:00,
2013-02-17 17:35:00,50.1,45.9,30.24,SE,130,1.4,0.0,85,0.00,,,0.00,WeatherCatV1.15B25,2013-02-18 01:35:00,
2013-02-17 17:39:00,45.3,40.2,30.32,ENE,67,0.0,0.0,82,0.00,,,0.02,LWC V2.11 B50,2013-02-18 01:39:00,
2013-02-17 17:40:00,50.1,45.9,30.24,SE,130,1.4,0.0,85,0.00,,,0.00,WeatherCatV1.15B25,2013-02-18 01:40:00,
2013-02-17 17:44:00,45.1,40.0,30.32,ENE,67,0.0,0.0,82,0.00,,,0.02,LWC V2.11 B50,2013-02-18 01:44:00,
2013-02-17 17:45:00,50.1,45.9,30.24,SE,130,1.4,0.0,85,0.00,,,0.00,WeatherCatV1.15B25,2013-02-18 01:45:00,
2013-02-17 17:49:00,44.8,39.6,30.32,ENE,67,0.0,0.0,82,0.00,,,0.02,LWC V2.11 B50,2013-02-18 01:49:00,
2013-02-17 17:50:00,50.1,45.9,30.24,SE,130,1.4,0.0,85,0.00,,,0.00,WeatherCatV1.15B25,2013-02-18 01:50:00,
2013-02-17 17:54:00,44.4,39.3,30.32,ENE,67,0.0,0.0,82,0.00,,,0.02,LWC V2.11 B50,2013-02-18 01:54:00,
2013-02-17 17:55:00,50.1,45.9,30.24,SE,130,1.4,0.0,85,0.00,,,0.00,WeatherCatV1.15B25,2013-02-18 01:55:00,
2013-02-17 17:59:00,44.4,39.3,30.32,ENE,67,0.0,0.0,82,0.00,,,0.02,LWC V2.11 B50,2013-02-18 01:59:00,
2013-02-17 18:00:00,50.1,45.9,30.24,SE,130,1.4,0.0,85,0.00,,,0.00,WeatherCatV1.15B25,2013-02-18 02:00:00,
2013-02-17 18:05:00,44.2,39.4,30.32,East,90,0.0,0.0,83,0.00,,,0.02,LWC V2.11 B50,2013-02-18 02:05:00,
2013-02-17 18:10:00,43.9,39.0,30.32,NE,45,0.0,0.0,83,0.00,,,0.02,LWC V2.11 B50,2013-02-18 02:10:00,
2013-02-17 18:15:00,43.9,39.0,30.32,ENE,67,0.0,0.0,83,0.00,,,0.02,LWC V2.11 B50,2013-02-18 02:15:00,
2013-02-17 18:20:00,43.5,38.7,30.31,ENE,67,0.0,0.0,83,0.00,,,0.02,LWC V2.11 B50,2013-02-18 02:20:00,
2013-02-17 18:25:00,43.5,39.0,30.31,ENE,67,0.0,0.0,84,0.00,,,0.02,LWC V2.11 B50,2013-02-18 02:25:00,
2013-02-17 18:30:00,43.5,39.0,30.31,ENE,67,0.0,0.0,84,0.00,,,0.02,LWC V2.11 B50,2013-02-18 02:30:00,
2013-02-17 18:35:00,43.5,39.0,30.31,ENE,67,0.0,0.0,84,0.00,,,0.02,LWC V2.11 B50,2013-02-18 02:35:00,
2013-02-17 18:40:00,43.3,38.8,30.31,East,90,0.0,0.0,84,0.00,,,0.02,LWC V2.11 B50,2013-02-18 02:40:00,
2013-02-17 18:45:00,43.3,38.8,30.32,ENE,67,0.0,0.0,84,0.00,,,0.02,LWC V2.11 B50,2013-02-18 02:45:00,
2013-02-17 18:50:00,43.3,39.1,30.31,East,90,0.0,0.0,85,0.00,,,0.02,LWC V2.11 B50,2013-02-18 02:50:00,
2013-02-17 18:55:00,43.2,38.9,30.31,ENE,67,0.0,0.0,85,0.00,,,0.02,LWC V2.11 B50,2013-02-18 02:55:00,
2013-02-17 19:00:00,43.2,38.9,30.31,ENE,67,0.0,0.0,85,0.00,,,0.02,LWC V2.11 B50,2013-02-18 03:00:00,
2013-02-17 19:05:00,43.0,39.1,30.31,NE,45,0.0,0.0,86,0.00,,,0.02,LWC V2.11 B50,2013-02-18 03:05:00,
2013-02-17 19:10:00,43.0,39.1,30.32,ESE,112,0.0,0.0,86,0.00,,,0.02,LWC V2.11 B50,2013-02-18 03:10:00,
2013-02-17 19:15:00,43.0,39.1,30.31,East,90,0.0,0.0,86,0.00,,,0.02,LWC V2.11 B50,2013-02-18 03:15:00,
2013-02-17 19:20:00,50.1,45.9,30.24,SE,130,1.4,0.0,85,0.00,,,0.00,WeatherCatV1.15B25,2013-02-18 03:20:00,
2013-02-17 19:21:00,43.0,39.1,30.31,ENE,67,0.0,0.0,86,0.00,,,0.02,LWC V2.11 B50,2013-02-18 03:21:00,
2013-02-17 19:25:00,50.1,45.9,30.24,SE,130,1.4,0.0,85,0.00,,,0.00,WeatherCatV1.15B25,2013-02-18 03:25:00,
2013-02-17 19:26:00,43.0,39.1,30.31,ENE,67,0.0,0.0,86,0.00,,,0.02,LWC V2.11 B50,2013-02-18 03:26:00,
2013-02-17 19:30:00,50.1,45.9,30.24,SE,130,1.4,0.0,85,0.00,,,0.00,WeatherCatV1.15B25,2013-02-18 03:30:00,
2013-02-17 19:31:00,43.0,39.1,30.31,East,90,0.0,0.0,86,0.00,,,0.02,LWC V2.11 B50,2013-02-18 03:31:00,
2013-02-17 19:35:00,50.1,45.9,30.24,SE,130,1.4,0.0,85,0.00,,,0.00,WeatherCatV1.15B25,2013-02-18 03:35:00,
2013-02-17 19:36:00,42.6,38.7,30.31,ENE,67,0.0,0.0,86,0.00,,,0.02,LWC V2.11 B50,2013-02-18 03:36:00,
2013-02-17 19:40:00,50.1,45.9,30.24,SE,130,1.4,0.0,85,0.00,,,0.00,WeatherCatV1.15B25,2013-02-18 03:40:00,
2013-02-17 19:41:00,42.6,38.7,30.31,ESE,112,0.0,0.0,86,0.00,,,0.02,LWC V2.11 B50,2013-02-18 03:41:00,
2013-02-17 19:45:00,50.1,45.9,30.24,SE,130,1.4,0.0,85,0.00,,,0.00,WeatherCatV1.15B25,2013-02-18 03:45:00,
2013-02-17 19:46:00,42.6,39.0,30.31,ESE,112,0.0,0.0,87,0.00,,,0.02,LWC V2.11 B50,2013-02-18 03:46:00,
2013-02-17 19:50:00,50.1,45.9,30.24,SE,130,1.4,0.0,85,0.00,,,0.00,WeatherCatV1.15B25,2013-02-18 03:50:00,
2013-02-17 19:51:00,42.4,38.8,30.31,ESE,112,0.0,0.0,87,0.00,,,0.02,LWC V2.11 B50,2013-02-18 03:51:00,
2013-02-17 19:55:00,50.1,45.9,30.24,SE,130,1.4,0.0,85,0.00,,,0.00,WeatherCatV1.15B25,2013-02-18 03:55:00,
2013-02-17 19:56:00,42.4,38.5,30.31,ESE,112,0.0,0.0,86,0.00,,,0.02,LWC V2.11 B50,2013-02-18 03:56:00,
2013-02-17 20:00:00,50.1,45.9,30.24,SE,130,1.4,0.0,85,0.00,,,0.00,WeatherCatV1.15B25,2013-02-18 04:00:00,
2013-02-17 20:01:00,42.4,38.8,30.31,ENE,67,0.0,0.0,87,0.00,,,0.02,LWC V2.11 B50,2013-02-18 04:01:00,
2013-02-17 20:05:00,50.1,45.9,30.24,SE,130,1.4,0.0,85,0.00,,,0.00,WeatherCatV1.15B25,2013-02-18 04:05:00,
2013-02-17 20:06:00,42.1,38.5,30.31,ESE,112,0.0,0.0,87,0.00,,,0.02,LWC V2.11 B50,2013-02-18 04:06:00,
2013-02-17 20:10:00,50.1,45.9,30.24,SE,130,1.4,0.0,85,0.00,,,0.00,WeatherCatV1.15B25,2013-02-18 04:10:00,
2013-02-17 20:11:00,42.1,38.5,30.31,ESE,112,0.0,0.0,87,0.00,,,0.02,LWC V2.11 B50,2013-02-18 04:11:00,
2013-02-17 20:15:00,50.1,45.9,30.24,SE,130,1.4,0.0,85,0.00,,,0.00,WeatherCatV1.15B25,2013-02-18 04:15:00,
2013-02-17 20:16:00,42.1,38.5,30.31,ENE,67,0.0,0.0,87,0.00,,,0.02,LWC V2.11 B50,2013-02-18 04:16:00,
2013-02-17 20:20:00,50.1,45.9,30.24,SE,130,1.4,0.0,85,0.00,,,0.00,WeatherCatV1.15B25,2013-02-18 04:20:00,
2013-02-17 20:21:00,42.1,38.8,30.31,East,90,0.0,0.0,88,0.00,,,0.02,LWC V2.11 B50,2013-02-18 04:21:00,
2013-02-17 20:25:00,50.1,45.9,30.24,SE,130,1.4,0.0,85,0.00,,,0.00,WeatherCatV1.15B25,2013-02-18 04:25:00,
2013-02-17 20:26:00,42.1,38.8,30.31,ESE,112,0.0,0.0,88,0.00,,,0.02,LWC V2.11 B50,2013-02-18 04:26:00,
2013-02-17 20:30:00,50.1,45.9,30.24,SE,130,1.4,0.0,85,0.00,,,0.00,WeatherCatV1.15B25,2013-02-18 04:30:00,
2013-02-17 20:31:00,42.1,38.8,30.31,East,90,0.0,0.0,88,0.00,,,0.02,LWC V2.11 B50,2013-02-18 04:31:00,
2013-02-17 20:35:00,50.1,45.9,30.24,SE,130,1.4,0.0,85,0.00,,,0.00,WeatherCatV1.15B25,2013-02-18 04:35:00,
2013-02-17 20:37:00,42.1,38.8,30.31,East,90,0.0,0.0,88,0.00,,,0.02,LWC V2.11 B50,2013-02-18 04:37:00,
2013-02-17 20:40:00,50.1,45.9,30.24,SE,130,1.4,0.0,85,0.00,,,0.00,WeatherCatV1.15B25,2013-02-18 04:40:00,
2013-02-17 20:42:00,42.1,38.8,30.31,ENE,67,0.0,0.0,88,0.00,,,0.02,LWC V2.11 B50,2013-02-18 04:42:00,
2013-02-17 20:45:00,50.1,45.9,30.24,SE,130,1.4,0.0,85,0.00,,,0.00,WeatherCatV1.15B25,2013-02-18 04:45:00,
2013-02-17 20:47:00,41.9,38.6,30.31,SE,135,0.0,0.0,88,0.00,,,0.02,LWC V2.11 B50,2013-02-18 04:47:00,
2013-02-17 20:50:00,50.1,45.9,30.24,SE,130,1.4,0.0,85,0.00,,,0.00,WeatherCatV1.15B25,2013-02-18 04:50:00,
2013-02-17 20:52:00,41.9,38.6,30.31,ESE,112,0.0,0.0,88,0.00,,,0.02,LWC V2.11 B50,2013-02-18 04:52:00,
2013-02-17 20:55:00,50.1,45.9,30.24,SE,130,1.4,0.0,85,0.00,,,0.00,WeatherCatV1.15B25,2013-02-18 04:55:00,
2013-02-17 20:57:00,41.9,38.6,30.31,SE,135,0.0,0.0,88,0.00,,,0.02,LWC V2.11 B50,2013-02-18 04:57:00,
2013-02-17 21:00:00,41.9,38.6,30.31,East,90,0.0,0.0,88,0.00,,,0.02,LWC V2.11 B50,2013-02-18 05:00:00,
2013-02-17 21:05:00,41.9,38.9,30.31,East,90,0.0,0.0,89,0.00,,,0.02,LWC V2.11 B50,2013-02-18 05:05:00,
2013-02-17 21:10:00,41.9,38.9,30.31,ESE,112,0.0,0.0,89,0.00,,,0.02,LWC V2.11 B50,2013-02-18 05:10:00,
2013-02-17 21:15:00,41.9,38.9,30.31,East,90,0.0,0.0,89,0.00,,,0.02,LWC V2.11 B50,2013-02-18 05:15:00,
2013-02-17 21:20:00,41.9,38.9,30.31,ESE,112,0.0,0.0,89,0.00,,,0.02,LWC V2.11 B50,2013-02-18 05:20:00,
2013-02-17 21:25:00,41.9,38.9,30.31,East,90,0.0,0.0,89,0.00,,,0.02,LWC V2.11 B50,2013-02-18 05:25:00,
2013-02-17 21:30:00,41.9,38.9,30.31,East,90,0.0,0.0,89,0.00,,,0.02,LWC V2.11 B50,2013-02-18 05:30:00,
2013-02-17 21:35:00,41.7,38.7,30.31,East,90,0.0,0.0,89,0.00,,,0.02,LWC V2.11 B50,2013-02-18 05:35:00,
2013-02-17 21:40:00,41.7,38.7,30.31,ENE,67,0.0,0.0,89,0.00,,,0.02,LWC V2.11 B50,2013-02-18 05:40:00,
2013-02-17 21:45:00,41.7,38.7,30.31,East,90,0.0,0.0,89,0.00,,,0.02,LWC V2.11 B50,2013-02-18 05:45:00,
2013-02-17 21:50:00,41.7,38.7,30.30,East,90,0.0,0.0,89,0.00,,,0.02,LWC V2.11 B50,2013-02-18 05:50:00,
2013-02-17 21:55:00,41.7,38.7,30.30,East,90,0.0,0.0,89,0.00,,,0.02,LWC V2.11 B50,2013-02-18 05:55:00,
2013-02-17 22:00:00,41.7,38.7,30.30,East,87,0.0,0.0,89,0.00,,,0.00,LWC V2.11 B50,2013-02-18 06:00:00,
2013-02-17 22:05:00,50.1,45.9,30.24,SE,130,1.4,0.0,85,0.00,,,0.00,WeatherCatV1.15B25,2013-02-18 06:05:00,
2013-02-17 22:10:00,41.8,38.8,30.30,East,88,0.0,0.0,89,0.00,,,0.00,LWC V2.11 B50,2013-02-18 06:10:00,
2013-02-17 22:15:00,50.1,45.9,30.24,SE,130,1.4,0.0,85,0.00,,,0.00,WeatherCatV1.15B25,2013-02-18 06:15:00,
2013-02-17 22:20:00,41.8,38.8,30.30,East,89,0.0,0.0,89,0.00,,,0.00,LWC V2.11 B50,2013-02-18 06:20:00,
2013-02-17 22:25:00,50.1,45.9,30.24,SE,130,1.4,0.0,85,0.00,,,0.00,WeatherCatV1.15B25,2013-02-18 06:25:00,
2013-02-17 22:30:00,41.9,38.9,30.29,East,90,0.0,0.0,89,0.00,,,0.00,LWC V2.11 B50,2013-02-18 06:30:00,
2013-02-17 22:35:00,50.1,45.9,30.24,SE,130,1.4,0.0,85,0.00,,,0.00,WeatherCatV1.15B25,2013-02-18 06:35:00,
2013-02-17 22:40:00,41.9,38.9,30.29,East,91,0.0,0.0,89,0.00,,,0.00,LWC V2.11 B50,2013-02-18 06:40:00,
2013-02-17 22:45:00,50.1,45.9,30.24,SE,130,1.4,0.0,85,0.00,,,0.00,WeatherCatV1.15B25,2013-02-18 06:45:00,
2013-02-17 22:50:00,42.0,38.9,30.29,East,92,0.0,0.0,89,0.00,,,0.00,LWC V2.11 B50,2013-02-18 06:50:00,
2013-02-17 22:55:00,50.1,45.9,30.24,SE,130,1.4,0.0,85,0.00,,,0.00,WeatherCatV1.15B25,2013-02-18 06:55:00,
2013-02-17 23:00:00,42.0,39.0,30.29,East,93,0.0,0.0,89,0.00,,,0.00,LWC V2.11 B50,2013-02-18 07:00:00,
2013-02-17 23:05:00,50.1,45.9,30.24,SE,130,1.4,0.0,85,0.00,,,0.00,WeatherCatV1.15B25,2013-02-18 07:05:00,
2013-02-17 23:10:00,42.1,39.0,30.29,East,94,0.0,0.0,89,0.00,,,0.00,LWC V2.11 B50,2013-02-18 07:10:00,
2013-02-17 23:15:00,50.1,45.9,30.24,SE,130,1.4,0.0,85,0.00,,,0.00,WeatherCatV1.15B25,2013-02-18 07:15:00,
2013-02-17 23:20:00,42.1,39.1,30.29,East,95,0.0,0.0,89,0.00,,,0.00,LWC V2.11 B50,2013-02-18 07:20:00,
2013-02-17 23:25:00,50.1,45.9,30.24,SE,130,1.4,0.0,85,0.00,,,0.00,WeatherCatV1.15B25,2013-02-18 07:25:00,
2013-02-17 23:30:00,42.2,39.1,30.29,East,96,0.0,0.0,89,0.00,,,0.00,LWC V2.11 B50,2013-02-18 07:30:00,
2013-02-17 23:35:00,50.1,45.9,30.24,SE,130,1.4,0.0,85,0.00,,,0.00,WeatherCatV1.15B25,2013-02-18 07:35:00,
2013-02-17 23:40:00,42.2,39.2,30.28,East,97,0.0,0.0,89,0.00,,,0.00,LWC V2.11 B50,2013-02-18 07:40:00,
2013-02-17 23:45:00,50.1,45.9,30.24,SE,130,1.4,0.0,85,0.00,,,0.00,WeatherCatV1.15B25,2013-02-18 07:45:00,
2013-02-17 23:50:00,42.3,39.2,30.28,East,97,0.0,0.0,89,0.00,,,0.00,LWC V2.11 B50,2013-02-18 07:50:00,
2013-02-17 23:55:00,50.1,45.9,30.24,SE,130,1.4,0.0,85,0.00,,,0.00,WeatherCatV1.15B25,2013-02-18 07:55:00,